Time;durP1;ratioP1;P1;durP2;ratioP2;P2;SDS_P1;SDS_P2;PMS_P1;PMS_P2;Temp;Humidity;BMP_temperature;BMP_pressure;BME280_temperature;BME280_humidity;BME280_pressure;Samples;Min_cycle;Max_cycle;Signal;HPM_P1;HPM_P2
2022/11/17 00:01:46;;;;;;;2.53;1.13;;;;;;;;;;5070088;28;20095;-41
2022/11/17 00:04:12;;;;;;;4.07;0.82;;;;;;;;;;5087667;28;20028;-41
2022/11/17 00:06:38;;;;;;;3.85;1.20;;;;;;;;;;5089144;28;20074;-41
2022/11/17 00:09:04;;;;;;;2.25;1.10;;;;;;;;;;5087993;28;20039;-41
2022/11/17 00:14:31;;;;;;;5.13;1.17;;;;;;;;;;5089151;28;20032;-41
2022/11/17 00:14:31;;;;;;;2.80;1.20;;;;;;;;;;5089042;28;20028;-41
2022/11/17 00:16:57;;;;;;;1.58;0.93;;;;;;;;;;5089048;28;20027;-41
2022/11/17 00:22:08;;;;;;;;;;;;;;;;;;5090072;28;20093;-41
2022/11/17 00:24:34;;;;;;;2.33;1.20;;;;;;;;;;5087659;28;20312;-42
2022/11/17 00:27:03;;;;;;;2.45;1.17;;;;;;;;;;5088979;28;20410;-41
2022/11/17 00:29:29;;;;;;;2.88;0.98;;;;;;;;;;5070769;28;21118;-41
2022/11/17 00:34:40;;;;;;;3.95;0.95;;;;;;;;;;5068912;28;20035;-41
2022/11/17 00:37:06;;;;;;;8.05;1.45;;;;;;;;;;5069206;28;20031;-41
2022/11/17 00:39:33;;;;;;;3.63;1.02;;;;;;;;;;5068641;28;20029;-41
2022/11/17 00:41:59;;;;;;;4.00;1.15;;;;;;;;;;5068065;28;20033;-42
2022/11/17 00:44:25;;;;;;;3.10;1.13;;;;;;;;;;5068408;28;20028;-41
2022/11/17 00:46:51;;;;;;;3.50;1.17;;;;;;;;;;5068648;28;20025;-41
2022/11/17 00:49:23;;;;;;;1.27;0.77;;;;;;;;;;5068414;28;20036;-41
2022/11/17 00:51:49;;;;;;;2.67;0.80;;;;;;;;;;5068462;28;20028;-42
2022/11/17 00:54:16;;;;;;;4.93;1.38;;;;;;;;;;5068493;28;20025;-41
2022/11/17 05:29:07;;;;;;;2.38;0.60;;;;;;;;;;5069640;28;20035;-41
2022/11/17 05:31:33;;;;;;;1.33;0.50;;;;;;;;;;5071299;28;20029;-41
2022/11/17 05:33:59;;;;;;;1.63;0.80;;;;;;;;;;5070727;28;20376;-41
2022/11/17 05:36:26;;;;;;;0.98;0.40;;;;;;;;;;5070359;28;20039;-41
2022/11/17 05:38:53;;;;;;;5.32;0.80;;;;;;;;;;5070670;28;20039;-41
2022/11/17 05:41:19;;;;;;;1.25;0.90;;;;;;;;;;5070712;28;20025;-41
2022/11/17 05:43:45;;;;;;;2.75;0.95;;;;;;;;;;5070813;28;20032;-41
2022/11/17 05:46:12;;;;;;;1.27;0.60;;;;;;;;;;5070838;28;20594;-41
2022/11/17 05:48:38;;;;;;;0.95;0.50;;;;;;;;;;5070322;28;20024;-41
2022/11/17 05:51:05;;;;;;;1.60;0.70;;;;;;;;;;5084675;28;20016;-41
2022/11/17 05:53:31;;;;;;;1.30;0.60;;;;;;;;;;5092045;28;20024;-41
2022/11/17 05:56:09;;;;;;;1.15;0.70;;;;;;;;;;5086850;28;20475;-41
2022/11/17 05:58:37;;;;;;;0.70;0.55;;;;;;;;;;5092416;28;20073;-41
2022/11/17 06:01:04;;;;;;;0.52;0.45;;;;;;;;;;5099661;28;20073;-41
2022/11/17 06:03:37;;;;;;;2.20;0.70;;;;;;;;;;5092281;28;20024;-41
2022/11/17 06:06:03;;;;;;;1.77;0.63;;;;;;;;;;5087295;28;20020;-41
2022/11/17 06:08:30;;;;;;;2.95;0.70;;;;;;;;;;5074366;28;20024;-41
2022/11/17 06:10:56;;;;;;;3.92;0.70;;;;;;;;;;5072360;28;20419;-41
2022/11/17 06:13:27;;;;;;;1.00;0.60;;;;;;;;;;5080545;28;20035;-41
2022/11/17 06:15:55;;;;;;;3.63;0.65;;;;;;;;;;5087375;28;20373;-41
2022/11/17 06:18:24;;;;;;;1.55;0.60;;;;;;;;;;5089721;28;20027;-41
2022/11/17 06:20:52;;;;;;;1.10;0.40;;;;;;;;;;5088316;28;20031;-41
2022/11/17 06:23:19;;;;;;;1.10;0.65;;;;;;;;;;5088853;28;20503;-41
2022/11/17 06:25:46;;;;;;;1.13;0.52;;;;;;;;;;5088993;28;20099;-41
2022/11/17 06:28:13;;;;;;;1.17;0.50;;;;;;;;;;5092375;28;20518;-41
2022/11/17 06:30:40;;;;;;;0.82;0.40;;;;;;;;;;5092137;28;20024;-41
2022/11/17 06:33:12;;;;;;;1.13;0.80;;;;;;;;;;5091929;28;20032;-41
2022/11/17 06:35:38;;;;;;;2.15;0.60;;;;;;;;;;5110668;28;20023;-41
2022/11/17 06:38:04;;;;;;;2.38;0.73;;;;;;;;;;5112523;28;20698;-41
2022/11/17 06:40:30;;;;;;;2.42;0.65;;;;;;;;;;5112113;28;20024;-41
2022/11/17 06:43:02;;;;;;;0.90;0.60;;;;;;;;;;5094435;28;20491;-41
2022/11/17 06:45:29;;;;;;;2.20;0.95;;;;;;;;;;5081657;28;20032;-41
2022/11/17 06:47:55;;;;;;;2.28;0.50;;;;;;;;;;5089701;28;20119;-41
2022/11/17 06:50:21;;;;;;;0.88;0.60;;;;;;;;;;5086342;28;20039;-41
2022/11/17 06:52:47;;;;;;;0.93;0.47;;;;;;;;;;5084230;28;20044;-41
2022/11/17 06:55:13;;;;;;;0.50;0.50;;;;;;;;;;5085985;28;20036;-41
2022/11/17 06:57:39;;;;;;;0.50;0.50;;;;;;;;;;5090334;28;20130;-41
2022/11/17 07:00:05;;;;;;;1.25;0.50;;;;;;;;;;5083723;28;20028;-41
2022/11/17 07:02:31;;;;;;;1.25;0.57;;;;;;;;;;5080534;28;20030;-41
2022/11/17 07:04:57;;;;;;;2.05;0.88;;;;;;;;;;5076418;28;20466;-41
2022/11/17 07:07:24;;;;;;;1.45;0.77;;;;;;;;;;5084129;28;20024;-42
2022/11/17 07:09:50;;;;;;;1.13;0.60;;;;;;;;;;5089124;28;20039;-41
2022/11/17 07:12:16;;;;;;;1.13;0.50;;;;;;;;;;5089143;28;20024;-41
2022/11/17 07:14:43;;;;;;;1.65;0.70;;;;;;;;;;5088812;28;20032;-41
2022/11/17 07:17:09;;;;;;;2.72;0.80;;;;;;;;;;5088987;28;20016;-41
2022/11/17 07:19:35;;;;;;;2.47;0.70;;;;;;;;;;5061949;28;20139;-41
2022/11/17 07:22:03;;;;;;;0.47;0.40;;;;;;;;;;5079700;28;20028;-41
2022/11/17 07:24:29;;;;;;;1.88;0.43;;;;;;;;;;5088701;28;20457;-41
2022/11/17 07:26:55;;;;;;;1.35;0.57;;;;;;;;;;5088684;28;20043;-41
2022/11/17 07:29:22;;;;;;;1.40;0.77;;;;;;;;;;5087332;28;20483;-41
2022/11/17 07:31:48;;;;;;;0.52;0.43;;;;;;;;;;5086968;28;20043;-41
2022/11/17 07:34:14;;;;;;;0.95;0.40;;;;;;;;;;5083204;28;20475;-41
2022/11/17 07:36:41;;;;;;;1.88;0.68;;;;;;;;;;5066829;28;20056;-41
2022/11/17 07:39:07;;;;;;;0.77;0.60;;;;;;;;;;5084905;28;20020;-41
2022/11/17 07:41:33;;;;;;;1.13;0.70;;;;;;;;;;5086641;28;20050;-41
2022/11/17 07:43:59;;;;;;;1.38;0.57;;;;;;;;;;5068326;28;20483;-41
2022/11/17 07:46:25;;;;;;;2.75;0.93;;;;;;;;;;5087439;28;20467;-41
2022/11/17 07:48:55;;;;;;;2.03;0.65;;;;;;;;;;5086411;28;20070;-41
2022/11/17 07:51:21;;;;;;;1.00;0.50;;;;;;;;;;5086365;28;20028;-41
2022/11/17 07:53:49;;;;;;;1.23;0.70;;;;;;;;;;5073901;28;20028;-41
2022/11/17 07:56:14;;;;;;;2.72;0.90;;;;;;;;;;5068903;28;20062;-41
2022/11/17 07:58:41;;;;;;;2.00;0.80;;;;;;;;;;5075046;28;20077;-41
2022/11/17 08:01:09;;;;;;;1.20;0.70;;;;;;;;;;5082071;28;20031;-41
2022/11/17 08:03:35;;;;;;;1.40;0.80;;;;;;;;;;5086463;28;20032;-41
2022/11/17 08:06:04;;;;;;;2.00;0.70;;;;;;;;;;5078525;28;20028;-41
2022/11/17 08:08:31;;;;;;;2.00;0.65;;;;;;;;;;5069493;28;20543;-41
2022/11/17 08:11:01;;;;;;;1.60;0.68;;;;;;;;;;5082818;28;20024;-41
2022/11/17 08:13:27;;;;;;;6.50;1.00;;;;;;;;;;5085614;28;20024;-41
2022/11/17 08:15:56;;;;;;;1.35;0.60;;;;;;;;;;5086676;28;20518;-41
2022/11/17 08:18:23;;;;;;;0.47;0.40;;;;;;;;;;5086716;28;20024;-41
2022/11/17 08:20:49;;;;;;;2.97;0.57;;;;;;;;;;5085599;28;20024;-41
2022/11/17 12:41:09;;;;;;;2.38;0.73;;;;;;;;;;5087740;28;20539;-41
2022/11/17 12:43:35;;;;;;;1.65;0.70;;;;;;;;;;5090705;28;20036;-41
2022/11/17 12:46:06;;;;;;;2.08;0.73;;;;;;;;;;5058126;28;20495;-41
2022/11/17 12:48:34;;;;;;;1.80;0.90;;;;;;;;;;5075856;28;20024;-41
2022/11/17 12:51:05;;;;;;;2.47;0.90;;;;;;;;;;5075350;28;20025;-41
2022/11/17 12:53:34;;;;;;;1.13;0.60;;;;;;;;;;5071725;28;20036;-41
2022/11/17 12:56:19;;;;;;;1.27;0.60;;;;;;;;;;5059834;28;20075;-41
2022/11/17 12:58:48;;;;;;;2.88;0.85;;;;;;;;;;5052024;28;20043;-41
2022/11/17 13:01:32;;;;;;;2.30;0.80;;;;;;;;;;5056885;28;20021;-41
2022/11/17 13:04:15;;;;;;;2.33;0.90;;;;;;;;;;5056029;28;20086;-41
2022/11/17 13:07:01;;;;;;;2.65;0.90;;;;;;;;;;5058521;28;20103;-41
2022/11/17 13:09:30;;;;;;;2.80;1.23;;;;;;;;;;5066891;28;20024;-41
2022/11/17 13:12:04;;;;;;;1.75;0.98;;;;;;;;;;5067552;28;20037;-41
2022/11/17 13:14:35;;;;;;;2.17;0.90;;;;;;;;;;5069591;28;20026;-41
2022/11/17 13:17:01;;;;;;;3.03;1.15;;;;;;;;;;5058761;28;20112;-41
2022/11/17 13:19:40;;;;;;;1.45;0.80;;;;;;;;;;5057087;28;20118;-41
2022/11/17 13:22:15;;;;;;;1.42;1.05;;;;;;;;;;5055602;28;20036;-41
2022/11/17 13:24:43;;;;;;;2.13;0.80;;;;;;;;;;5092263;28;20611;-41
2022/11/17 13:27:21;;;;;;;3.35;1.17;;;;;;;;;;5097071;28;20028;-41
2022/11/17 13:29:47;;;;;;;5.20;1.55;;;;;;;;;;5080261;28;20031;-41
2022/11/17 13:32:19;;;;;;;3.33;1.17;;;;;;;;;;5076264;28;20024;-41
2022/11/17 13:34:56;;;;;;;2.25;1.10;;;;;;;;;;5076257;28;20013;-41
2022/11/17 13:37:27;;;;;;;2.90;1.00;;;;;;;;;;5074165;28;20036;-41
2022/11/17 13:39:54;;;;;;;3.10;1.05;;;;;;;;;;5058950;28;20048;-41
2022/11/17 13:42:20;;;;;;;4.15;1.10;;;;;;;;;;5055978;28;20112;-41
2022/11/17 13:44:47;;;;;;;3.05;1.08;;;;;;;;;;5055698;28;20033;-41
2022/11/17 13:47:20;;;;;;;4.60;1.15;;;;;;;;;;5069068;28;20036;-41
2022/11/17 13:49:46;;;;;;;3.97;1.27;;;;;;;;;;5075867;28;20105;-41
2022/11/17 13:52:23;;;;;;;1.92;0.85;;;;;;;;;;5076292;28;20114;-41
2022/11/17 13:54:49;;;;;;;3.22;0.98;;;;;;;;;;5059333;28;20030;-41
2022/11/17 13:57:21;;;;;;;2.45;1.00;;;;;;;;;;5076419;28;20112;-41
2022/11/17 13:59:47;;;;;;;3.47;0.80;;;;;;;;;;5075941;28;20106;-41
2022/11/17 14:02:19;;;;;;;2.22;0.90;;;;;;;;;;5076139;28;20086;-41
2022/11/17 14:05:03;;;;;;;3.78;1.15;;;;;;;;;;5093922;28;20055;-41
2022/11/17 14:07:30;;;;;;;4.93;1.48;;;;;;;;;;5096356;28;20028;-41
2022/11/17 14:10:19;;;;;;;2.75;0.95;;;;;;;;;;5095618;28;20024;-41
2022/11/17 14:12:46;;;;;;;3.50;1.50;;;;;;;;;;5072330;28;20025;-41
2022/11/17 14:15:24;;;;;;;4.00;1.05;;;;;;;;;;5079118;28;20081;-41
2022/11/17 14:17:51;;;;;;;3.78;1.20;;;;;;;;;;5078750;28;20043;-41
2022/11/17 14:20:18;;;;;;;3.08;1.10;;;;;;;;;;5073812;28;20086;-41
2022/11/17 14:23:00;;;;;;;5.10;1.40;;;;;;;;;;5083826;28;20059;-41
2022/11/17 14:25:26;;;;;;;4.72;1.30;;;;;;;;;;5073001;28;20044;-41
2022/11/17 14:27:52;;;;;;;2.88;1.20;;;;;;;;;;5074640;28;20483;-42
2022/11/17 14:30:18;;;;;;;1.85;0.75;;;;;;;;;;5077547;28;20024;-41
2022/11/17 14:32:44;;;;;;;4.97;1.00;;;;;;;;;;5072522;28;20054;-41
2022/11/17 14:35:13;;;;;;;2.40;1.02;;;;;;;;;;5072529;28;20035;-41
2022/11/17 14:37:40;;;;;;;3.65;1.05;;;;;;;;;;5075305;28;20048;-41
2022/11/17 14:40:08;;;;;;;4.28;1.20;;;;;;;;;;5092755;28;20035;-41
2022/11/17 14:42:34;;;;;;;3.72;1.17;;;;;;;;;;5077867;28;20102;-41
2022/11/17 14:45:00;;;;;;;2.35;0.95;;;;;;;;;;5071478;28;20032;-41
2022/11/17 14:47:26;;;;;;;4.07;1.10;;;;;;;;;;5069911;28;20040;-41
2022/11/17 14:49:52;;;;;;;4.35;1.10;;;;;;;;;;5071179;28;20024;-41
2022/11/17 14:52:18;;;;;;;2.17;0.77;;;;;;;;;;5070817;28;20035;-41
2022/11/17 14:54:44;;;;;;;2.25;0.80;;;;;;;;;;5074942;28;20508;-41
2022/11/17 14:57:10;;;;;;;5.00;1.30;;;;;;;;;;5077812;28;20028;-42
2022/11/17 14:59:36;;;;;;;3.75;1.33;;;;;;;;;;5069947;28;20021;-41
2022/11/17 15:02:03;;;;;;;2.72;1.00;;;;;;;;;;5071012;28;20056;-41
2022/11/17 15:04:29;;;;;;;3.30;1.10;;;;;;;;;;5090673;28;20024;-41
2022/11/17 15:06:55;;;;;;;4.45;1.30;;;;;;;;;;5074027;28;20040;-41
2022/11/17 15:09:21;;;;;;;4.22;1.30;;;;;;;;;;5070688;28;20496;-41
2022/11/17 15:11:47;;;;;;;3.63;1.20;;;;;;;;;;5080488;28;20036;-41
2022/11/17 15:14:13;;;;;;;4.22;1.05;;;;;;;;;;5076763;28;20072;-41
2022/11/17 15:16:39;;;;;;;2.08;1.00;;;;;;;;;;5077600;28;20396;-41
2022/11/17 15:19:06;;;;;;;4.47;1.63;;;;;;;;;;5069502;28;20032;-42
2022/11/17 15:21:32;;;;;;;5.50;1.40;;;;;;;;;;5069128;28;20119;-41
2022/11/17 15:23:58;;;;;;;2.42;1.05;;;;;;;;;;5069592;28;20024;-41
2022/11/17 15:26:25;;;;;;;3.33;1.08;;;;;;;;;;5069710;28;20506;-41
2022/11/17 15:28:51;;;;;;;4.38;1.10;;;;;;;;;;5077268;28;20154;-41
2022/11/17 15:31:18;;;;;;;3.72;1.17;;;;;;;;;;5073125;28;20111;-41
2022/11/17 15:33:45;;;;;;;6.10;1.15;;;;;;;;;;5080029;28;20028;-41
2022/11/17 15:36:13;;;;;;;6.15;1.80;;;;;;;;;;5090115;28;20024;-41
2022/11/17 15:38:39;;;;;;;4.90;1.38;;;;;;;;;;5086721;28;20425;-42
2022/11/17 15:41:07;;;;;;;3.15;1.23;;;;;;;;;;5065148;28;20395;-41
2022/11/17 15:43:34;;;;;;;3.00;1.00;;;;;;;;;;5088961;28;20032;-41
2022/11/17 15:46:01;;;;;;;4.47;1.65;;;;;;;;;;5085038;28;20028;-41
2022/11/17 15:48:27;;;;;;;5.57;1.77;;;;;;;;;;5089912;28;20602;-41
2022/11/17 15:50:57;;;;;;;5.28;1.83;;;;;;;;;;5088987;28;20077;-41
2022/11/17 15:53:23;;;;;;;6.10;2.33;;;;;;;;;;5075804;28;20029;-41
2022/11/17 15:55:49;;;;;;;6.57;1.80;;;;;;;;;;5080357;28;20031;-41
2022/11/17 15:58:15;;;;;;;4.80;1.50;;;;;;;;;;5086607;28;20463;-43
2022/11/17 16:00:41;;;;;;;5.68;1.80;;;;;;;;;;5082957;28;20028;-42
2022/11/17 16:03:07;;;;;;;6.15;1.73;;;;;;;;;;5077943;28;20443;-44
2022/11/17 16:05:33;;;;;;;5.30;1.55;;;;;;;;;;5063458;28;20020;-42
2022/11/17 16:07:59;;;;;;;4.47;1.48;;;;;;;;;;5089204;28;20085;-42
2022/11/17 16:10:26;;;;;;;5.20;1.30;;;;;;;;;;5078965;28;20052;-42
2022/11/17 16:12:52;;;;;;;3.47;1.25;;;;;;;;;;5083021;28;20028;-42
2022/11/17 16:15:18;;;;;;;3.17;1.50;;;;;;;;;;5085800;28;20696;-42
2022/11/17 16:17:44;;;;;;;5.95;1.88;;;;;;;;;;5086095;28;20028;-42
2022/11/17 16:20:10;;;;;;;5.10;1.52;;;;;;;;;;5099033;28;20414;-42
2022/11/17 16:22:36;;;;;;;3.13;1.75;;;;;;;;;;5088840;28;20028;-42
2022/11/17 16:25:04;;;;;;;3.50;1.20;;;;;;;;;;5088292;28;20035;-42
2022/11/17 16:27:31;;;;;;;3.53;1.30;;;;;;;;;;5088399;28;20032;-42
2022/11/17 16:29:57;;;;;;;3.28;1.13;;;;;;;;;;5082953;28;20016;-42
2022/11/17 16:32:23;;;;;;;6.38;1.58;;;;;;;;;;5087418;28;20027;-42
2022/11/17 16:34:49;;;;;;;2.55;1.23;;;;;;;;;;5075658;28;20426;-42
2022/11/17 16:37:15;;;;;;;3.25;1.08;;;;;;;;;;5088537;28;20028;-42
2022/11/17 16:39:41;;;;;;;2.83;1.10;;;;;;;;;;5073589;28;20024;-42
2022/11/17 16:42:07;;;;;;;1.98;1.15;;;;;;;;;;5057819;28;20039;-42
2022/11/17 16:44:33;;;;;;;3.25;1.48;;;;;;;;;;5088051;28;20032;-42
2022/11/17 16:46:59;;;;;;;4.25;1.50;;;;;;;;;;5087341;28;20050;-42
2022/11/17 16:49:25;;;;;;;5.07;1.70;;;;;;;;;;5088049;28;20419;-42
2022/11/17 16:51:55;;;;;;;3.17;1.63;;;;;;;;;;5088878;28;20032;-42
2022/11/17 16:54:21;;;;;;;6.82;2.03;;;;;;;;;;5087272;28;20016;-42
2022/11/17 16:56:47;;;;;;;5.40;1.70;;;;;;;;;;5094890;28;20398;-42
2022/11/17 16:59:13;;;;;;;6.28;2.15;;;;;;;;;;5080086;28;20039;-42
2022/11/17 17:01:39;;;;;;;5.75;2.20;;;;;;;;;;5068514;28;20563;-42
2022/11/17 17:04:06;;;;;;;6.15;2.60;;;;;;;;;;5069027;28;20059;-42
2022/11/17 17:06:33;;;;;;;7.05;2.83;;;;;;;;;;5072425;28;20523;-42
2022/11/17 17:09:01;;;;;;;8.00;2.50;;;;;;;;;;5088200;28;20349;-42
2022/11/17 17:11:30;;;;;;;8.00;2.25;;;;;;;;;;5088509;28;20769;-43
2022/11/17 17:13:56;;;;;;;7.75;2.25;;;;;;;;;;5072421;28;20025;-42
2022/11/17 17:16:22;;;;;;;8.35;2.47;;;;;;;;;;5074808;28;20028;-41
2022/11/17 17:18:53;;;;;;;5.70;2.13;;;;;;;;;;5069623;28;20031;-41
2022/11/17 17:21:19;;;;;;;7.22;2.10;;;;;;;;;;5068914;28;20025;-41
2022/11/17 17:23:45;;;;;;;7.22;2.80;;;;;;;;;;5077997;28;20027;-41
2022/11/17 17:26:16;;;;;;;8.43;2.72;;;;;;;;;;5086258;28;20104;-41
2022/11/17 17:28:43;;;;;;;4.65;2.15;;;;;;;;;;5088712;28;20099;-42
2022/11/17 17:31:09;;;;;;;4.82;2.20;;;;;;;;;;5086545;28;20031;-41
2022/11/17 17:33:36;;;;;;;6.82;2.40;;;;;;;;;;5083321;28;20020;-42
2022/11/17 17:36:07;;;;;;;5.50;2.00;;;;;;;;;;5082094;28;20028;-41
2022/11/17 17:38:33;;;;;;;5.93;2.40;;;;;;;;;;5083621;28;20024;-41
2022/11/17 17:41:09;;;;;;;7.63;2.28;;;;;;;;;;5084471;28;20051;-42
2022/11/17 17:43:35;;;;;;;7.28;2.20;;;;;;;;;;5059577;28;20044;-42
2022/11/17 17:46:02;;;;;;;5.43;2.20;;;;;;;;;;5049714;28;20111;-42
2022/11/17 17:48:29;;;;;;;6.60;2.72;;;;;;;;;;5052439;28;20021;-42
2022/11/17 17:51:06;;;;;;;6.75;2.75;;;;;;;;;;5051212;28;20028;-41
2022/11/17 17:53:33;;;;;;;8.02;2.25;;;;;;;;;;5050969;28;20158;-42
2022/11/17 17:56:03;;;;;;;7.18;2.50;;;;;;;;;;5051105;28;20115;-42
2022/11/17 17:58:29;;;;;;;6.10;2.25;;;;;;;;;;5055482;28;20416;-42
2022/11/17 18:00:56;;;;;;;8.57;2.70;;;;;;;;;;5072452;28;20086;-41
2022/11/17 18:03:22;;;;;;;7.97;2.40;;;;;;;;;;5069870;28;20046;-41
2022/11/17 18:05:48;;;;;;;5.65;2.35;;;;;;;;;;5069653;28;20033;-42
2022/11/17 18:08:14;;;;;;;8.18;2.17;;;;;;;;;;5069540;28;20558;-42
2022/11/17 18:10:40;;;;;;;7.78;2.42;;;;;;;;;;5070638;28;20028;-41
2022/11/17 18:13:06;;;;;;;9.05;2.55;;;;;;;;;;5070493;28;20448;-42
2022/11/17 18:15:32;;;;;;;6.90;2.72;;;;;;;;;;5067327;28;20103;-43
2022/11/17 18:17:58;;;;;;;8.65;2.85;;;;;;;;;;5061516;28;20096;-41
2022/11/17 18:20:24;;;;;;;5.68;2.20;;;;;;;;;;5060974;28;20031;-42
2022/11/17 18:22:50;;;;;;;6.00;2.35;;;;;;;;;;5049837;28;20512;-42
2022/11/17 18:25:16;;;;;;;6.32;2.28;;;;;;;;;;5069035;28;20032;-42
2022/11/17 18:27:42;;;;;;;5.20;1.77;;;;;;;;;;5057251;28;20029;-42
2022/11/17 18:30:08;;;;;;;5.75;2.05;;;;;;;;;;5086153;28;20047;-42
2022/11/17 18:32:34;;;;;;;5.53;2.03;;;;;;;;;;5065176;28;20031;-43
2022/11/17 18:35:00;;;;;;;4.07;2.10;;;;;;;;;;5063587;28;20033;-42
2022/11/17 18:37:26;;;;;;;5.85;3.10;;;;;;;;;;5056539;28;20031;-42
2022/11/17 18:39:52;;;;;;;6.07;2.30;;;;;;;;;;5089823;28;20028;-42
2022/11/17 18:42:18;;;;;;;5.57;2.63;;;;;;;;;;5067369;28;20025;-42
2022/11/17 18:44:44;;;;;;;4.70;2.78;;;;;;;;;;5052051;28;20111;-42
2022/11/17 18:47:12;;;;;;;3.53;2.10;;;;;;;;;;5082158;28;20640;-42
2022/11/17 18:49:38;;;;;;;4.35;2.17;;;;;;;;;;5074180;28;20052;-42
2022/11/17 18:52:04;;;;;;;7.70;3.00;;;;;;;;;;5085904;28;20063;-42
2022/11/17 18:54:30;;;;;;;7.00;2.40;;;;;;;;;;5082443;28;20420;-42
2022/11/17 18:56:56;;;;;;;6.03;2.28;;;;;;;;;;5078548;28;20055;-42
2022/11/17 18:59:22;;;;;;;5.82;2.65;;;;;;;;;;5084169;28;20031;-42
2022/11/17 19:01:48;;;;;;;7.78;2.28;;;;;;;;;;5081214;28;20115;-42
2022/11/17 19:04:15;;;;;;;5.90;2.13;;;;;;;;;;5083256;28;20041;-43
2022/11/17 19:06:41;;;;;;;6.60;2.50;;;;;;;;;;5081828;28;20491;-43
2022/11/17 19:09:07;;;;;;;7.22;2.50;;;;;;;;;;5081858;28;20032;-42
2022/11/17 19:11:33;;;;;;;5.05;2.25;;;;;;;;;;5070477;28;20044;-42
2022/11/17 19:14:06;;;;;;;6.18;2.63;;;;;;;;;;5063093;28;20024;-42
2022/11/17 19:16:35;;;;;;;4.93;2.05;;;;;;;;;;5080755;28;20021;-43
2022/11/17 19:19:01;;;;;;;5.13;2.30;;;;;;;;;;5080675;28;20024;-42
2022/11/17 19:21:29;;;;;;;2.97;1.80;;;;;;;;;;5071562;28;20549;-42
2022/11/17 19:23:56;;;;;;;5.03;2.13;;;;;;;;;;5062683;28;20036;-42
2022/11/17 19:26:23;;;;;;;4.35;1.63;;;;;;;;;;5076386;28;20020;-42
2022/11/17 19:28:50;;;;;;;2.97;1.70;;;;;;;;;;5088163;28;20028;-42
2022/11/17 19:31:17;;;;;;;3.28;1.35;;;;;;;;;;5090027;28;20017;-42
2022/11/17 19:33:44;;;;;;;2.22;1.33;;;;;;;;;;5086399;28;20016;-42
2022/11/17 19:36:12;;;;;;;3.22;1.50;;;;;;;;;;5068870;28;20031;-42
2022/11/17 19:38:38;;;;;;;4.47;2.10;;;;;;;;;;5051915;28;20063;-42
2022/11/17 19:41:05;;;;;;;3.47;2.13;;;;;;;;;;5074134;28;20039;-42
2022/11/17 19:43:31;;;;;;;2.90;1.60;;;;;;;;;;5061275;28;20040;-42
2022/11/17 19:45:58;;;;;;;3.85;1.83;;;;;;;;;;5086478;28;20032;-42
2022/11/17 19:48:24;;;;;;;5.80;2.38;;;;;;;;;;5075393;28;20062;-42
2022/11/17 19:50:50;;;;;;;4.40;2.60;;;;;;;;;;5088669;28;20069;-42
2022/11/17 19:53:16;;;;;;;6.25;2.65;;;;;;;;;;5065799;28;20434;-42
2022/11/17 19:55:42;;;;;;;5.30;2.60;;;;;;;;;;5081521;28;20035;-42
2022/11/17 19:58:08;;;;;;;4.10;2.50;;;;;;;;;;5088250;28;20028;-41
2022/11/17 20:00:34;;;;;;;3.85;2.00;;;;;;;;;;5088572;28;20022;-42
2022/11/17 20:03:01;;;;;;;3.22;2.05;;;;;;;;;;5088581;28;20023;-42
2022/11/17 20:05:27;;;;;;;4.00;2.10;;;;;;;;;;5083177;28;20373;-42
2022/11/17 20:07:53;;;;;;;2.78;1.65;;;;;;;;;;5076469;28;20035;-42
2022/11/17 20:10:19;;;;;;;2.70;1.30;;;;;;;;;;5077139;28;20020;-42
2022/11/17 20:12:45;;;;;;;3.80;1.40;;;;;;;;;;5087887;28;20483;-42
2022/11/17 20:15:11;;;;;;;2.67;1.30;;;;;;;;;;5073739;28;20039;-42
2022/11/17 20:17:37;;;;;;;2.25;1.35;;;;;;;;;;5085022;28;20028;-42
2022/11/17 20:20:04;;;;;;;3.20;1.45;;;;;;;;;;5088236;28;20028;-42
2022/11/17 20:22:30;;;;;;;2.88;1.40;;;;;;;;;;5088490;28;20036;-42
2022/11/17 20:24:56;;;;;;;3.63;1.88;;;;;;;;;;5083374;28;20028;-41
2022/11/17 20:27:22;;;;;;;3.63;1.63;;;;;;;;;;5086049;28;20452;-42
2022/11/17 20:29:48;;;;;;;4.75;2.30;;;;;;;;;;5064008;28;20031;-42
2022/11/17 20:32:14;;;;;;;3.13;2.05;;;;;;;;;;5063077;28;20029;-42
2022/11/17 20:34:40;;;;;;;2.28;1.40;;;;;;;;;;5086031;28;20429;-42
2022/11/17 20:37:06;;;;;;;2.08;1.23;;;;;;;;;;5085733;28;20024;-42
2022/11/17 20:39:32;;;;;;;1.90;1.10;;;;;;;;;;5074277;28;20028;-42
2022/11/17 20:41:58;;;;;;;1.60;1.23;;;;;;;;;;5067974;28;20036;-42
2022/11/17 20:44:24;;;;;;;2.17;1.40;;;;;;;;;;5069008;28;20297;-42
2022/11/17 20:46:54;;;;;;;2.85;1.90;;;;;;;;;;5077362;28;20038;-42
2022/11/17 20:49:21;;;;;;;4.00;2.00;;;;;;;;;;5088565;28;20024;-42
2022/11/17 20:51:47;;;;;;;4.43;1.60;;;;;;;;;;5082556;28;20036;-42
2022/11/17 20:54:13;;;;;;;3.72;1.90;;;;;;;;;;5067700;28;20032;-42
2022/11/17 20:56:40;;;;;;;4.68;1.83;;;;;;;;;;5071082;28;20398;-42
2022/11/17 20:59:06;;;;;;;2.13;1.50;;;;;;;;;;5088584;28;20099;-42
2022/11/17 21:01:32;;;;;;;2.85;1.60;;;;;;;;;;5085078;28;20028;-41
2022/11/17 21:03:58;;;;;;;3.05;1.52;;;;;;;;;;5074562;28;20606;-42
2022/11/17 21:06:24;;;;;;;3.83;1.77;;;;;;;;;;5079102;28;20111;-42
2022/11/17 21:08:51;;;;;;;2.25;1.45;;;;;;;;;;5069470;28;20024;-42
2022/11/17 21:14:06;;;;;;;2.35;1.58;;;;;;;;;;5074515;28;20052;-42
2022/11/17 21:16:33;;;;;;;3.20;1.50;;;;;;;;;;5087091;28;20020;-42
2022/11/17 21:18:59;;;;;;;3.50;1.40;;;;;;;;;;5065504;28;20101;-42
2022/11/17 21:21:25;;;;;;;5.03;2.08;;;;;;;;;;5074212;28;20024;-41
2022/11/17 21:23:55;;;;;;;3.67;1.95;;;;;;;;;;5058442;28;20036;-41
2022/11/17 21:26:21;;;;;;;6.50;2.13;;;;;;;;;;5076292;28;20028;-41
2022/11/17 21:28:48;;;;;;;3.95;1.75;;;;;;;;;;5086039;28;20597;-42
2022/11/17 21:31:15;;;;;;;3.80;1.88;;;;;;;;;;5070985;28;20074;-42
2022/11/17 21:33:42;;;;;;;5.88;1.92;;;;;;;;;;5070494;28;20028;-42
2022/11/17 21:36:09;;;;;;;4.55;1.50;;;;;;;;;;5070964;28;20541;-42
2022/11/17 21:38:35;;;;;;;2.72;1.33;;;;;;;;;;5068433;28;20395;-41
2022/11/17 21:41:09;;;;;;;2.47;1.45;;;;;;;;;;5091079;28;20395;-42
2022/11/17 21:43:36;;;;;;;2.38;1.27;;;;;;;;;;5091008;28;20039;-42
2022/11/17 21:46:03;;;;;;;3.42;1.45;;;;;;;;;;5091149;28;20024;-42
2022/11/17 21:48:30;;;;;;;1.33;1.00;;;;;;;;;;5073829;28;20041;-42
2022/11/17 21:50:56;;;;;;;1.92;1.10;;;;;;;;;;5074747;28;20100;-42
2022/11/17 21:53:22;;;;;;;1.77;1.27;;;;;;;;;;5091401;28;20040;-41
2022/11/17 21:55:48;;;;;;;2.53;1.10;;;;;;;;;;5090543;28;20449;-42
2022/11/17 21:58:14;;;;;;;1.60;0.93;;;;;;;;;;5072577;28;20103;-42
2022/11/17 22:00:40;;;;;;;2.88;1.10;;;;;;;;;;5089593;28;20024;-42
2022/11/17 22:03:06;;;;;;;2.40;1.30;;;;;;;;;;5090592;28;20115;-42
2022/11/17 22:05:32;;;;;;;2.53;1.20;;;;;;;;;;5090633;28;20112;-42
2022/11/17 22:07:58;;;;;;;3.47;1.67;;;;;;;;;;5089431;28;20032;-41
2022/11/17 22:10:24;;;;;;;4.03;1.55;;;;;;;;;;5091161;28;20024;-42
2022/11/17 22:12:50;;;;;;;2.83;1.70;;;;;;;;;;5089339;28;20388;-41
2022/11/17 22:15:16;;;;;;;2.67;1.50;;;;;;;;;;5078346;28;20073;-42
2022/11/17 22:17:42;;;;;;;2.45;1.48;;;;;;;;;;5089290;28;20032;-42
2022/11/17 22:20:09;;;;;;;2.72;1.73;;;;;;;;;;5090235;28;20024;-42
2022/11/17 22:22:35;;;;;;;4.47;1.55;;;;;;;;;;5090097;28;20042;-42
2022/11/17 22:25:01;;;;;;;3.78;1.52;;;;;;;;;;5090427;28;20025;-41
2022/11/17 22:27:27;;;;;;;5.10;2.10;;;;;;;;;;5090761;28;20039;-41
2022/11/17 22:29:53;;;;;;;2.35;1.13;;;;;;;;;;5090494;28;20024;-42
2022/11/17 22:32:20;;;;;;;3.85;1.40;;;;;;;;;;5088459;28;20027;-41
2022/11/17 22:34:45;;;;;;;2.60;1.25;;;;;;;;;;5089839;28;20506;-41
2022/11/17 22:37:11;;;;;;;3.25;1.20;;;;;;;;;;5090122;28;20028;-42
2022/11/17 22:39:37;;;;;;;2.25;1.27;;;;;;;;;;5089604;28;20020;-42
2022/11/17 22:42:04;;;;;;;4.57;2.20;;;;;;;;;;5089994;28;20028;-42
2022/11/17 22:44:30;;;;;;;3.53;1.63;;;;;;;;;;5089719;28;20411;-42
2022/11/17 22:46:56;;;;;;;5.85;1.33;;;;;;;;;;5089909;28;20039;-42
2022/11/17 22:49:22;;;;;;;4.25;1.50;;;;;;;;;;5071722;28;20036;-43
2022/11/17 22:52:03;;;;;;;2.58;1.27;;;;;;;;;;5068723;28;20514;-42
2022/11/17 22:54:30;;;;;;;3.60;1.33;;;;;;;;;;5074533;28;20107;-42
2022/11/17 22:56:56;;;;;;;3.42;1.63;;;;;;;;;;5079163;28;20020;-42
2022/11/17 22:59:23;;;;;;;2.35;1.13;;;;;;;;;;5080538;28;20463;-41
2022/11/17 23:01:49;;;;;;;2.45;1.05;;;;;;;;;;5089224;28;20119;-41
2022/11/17 23:04:15;;;;;;;2.22;1.00;;;;;;;;;;5091689;28;20095;-41
2022/11/17 23:06:42;;;;;;;1.73;1.08;;;;;;;;;;5091457;28;20123;-41
2022/11/17 23:09:08;;;;;;;1.70;0.93;;;;;;;;;;5091480;28;20073;-41
2022/11/17 23:11:34;;;;;;;1.98;1.08;;;;;;;;;;5091367;28;20103;-41
2022/11/17 23:14:00;;;;;;;3.92;1.10;;;;;;;;;;5092079;28;20027;-41
2022/11/17 23:16:26;;;;;;;1.55;0.90;;;;;;;;;;5089770;28;20024;-41
2022/11/17 23:18:56;;;;;;;2.30;1.42;;;;;;;;;;5091286;28;20384;-41
2022/11/17 23:21:22;;;;;;;2.55;1.20;;;;;;;;;;5091124;28;20031;-41
2022/11/17 23:23:48;;;;;;;1.88;1.27;;;;;;;;;;5091254;28;20028;-42
2022/11/17 23:26:14;;;;;;;2.22;1.10;;;;;;;;;;5090993;28;20121;-41
2022/11/17 23:28:41;;;;;;;4.13;1.40;;;;;;;;;;5089746;28;20016;-41
2022/11/17 23:31:09;;;;;;;2.05;1.00;;;;;;;;;;5091083;28;20028;-41
2022/11/17 23:33:36;;;;;;;1.70;0.90;;;;;;;;;;5090851;28;20028;-41
2022/11/17 23:36:02;;;;;;;4.47;1.30;;;;;;;;;;5080475;28;20099;-41
2022/11/17 23:38:30;;;;;;;3.00;0.90;;;;;;;;;;5071143;28;20083;-41
2022/11/17 23:41:03;;;;;;;2.67;1.13;;;;;;;;;;5070600;28;20024;-41
2022/11/17 23:43:29;;;;;;;1.58;1.00;;;;;;;;;;5070734;28;20611;-41